Terminal Aerodrome Forecast
Issued by NWS

Home | Current Version | Previous Version | Text Only | Print | Product List | Glossary On
Versions: 1 2 3 4 5 6 7 8 9
000
FTUS43 KJKL 262339
TAFSME
TAF
KSME 262339Z 2700/2724 34007KT P6SM -SHSN SCT025 OVC060
     FM270300 35007KT 5SM -SN BR BKN025 OVC035
     FM270500 35006KT 6SM -SN BR BKN015 OVC030
     FM271400 36005KT P6SM SCT015 BKN030=

USA.gov is the U.S. government's official web portal to all federal, state and local government web resources and services.